Time,TemperatureF,DewpointF,PressureIn,WindDirection,WindDirectionDegrees,WindSpeedMPH,WindSpeedGustMPH,Humidity,HourlyPrecipIn,Conditions,Clouds,dailyrainin,SoftwareType,DateUTC
2013-05-04 00:01:00,45.4,42.0,30.07,South,180,0.0,0.0,88,0.00,,,0.00,WUHU216HW,2013-05-04 07:01:00,
2013-05-04 00:06:00,45.2,41.6,30.07,South,180,0.0,0.7,87,0.00,,,0.00,WUHU216HW,2013-05-04 07:06:00,
2013-05-04 00:11:00,45.2,42.2,30.07,South,180,0.0,0.7,89,0.00,,,0.00,WUHU216HW,2013-05-04 07:11:00,
2013-05-04 00:16:00,45.2,41.6,30.07,South,180,0.4,0.7,87,0.00,,,0.00,WUHU216HW,2013-05-04 07:16:00,
2013-05-04 00:21:00,45.0,41.7,30.07,South,180,0.0,0.7,88,0.00,,,0.00,WUHU216HW,2013-05-04 07:21:00,
2013-05-04 00:26:00,44.5,40.9,30.07,South,180,0.0,0.7,87,0.00,,,0.00,WUHU216HW,2013-05-04 07:26:00,
2013-05-04 00:31:00,44.3,41.0,30.07,South,180,0.0,0.0,88,0.00,,,0.00,WUHU216HW,2013-05-04 07:31:00,
2013-05-04 00:36:00,44.5,41.1,30.07,SSE,158,0.0,0.7,88,0.00,,,0.00,WUHU216HW,2013-05-04 07:36:00,
2013-05-04 00:41:00,44.3,41.3,30.07,SSE,158,0.0,0.7,89,0.00,,,0.00,WUHU216HW,2013-05-04 07:41:00,
2013-05-04 00:46:00,44.1,40.8,30.07,SSE,158,0.0,0.0,88,0.00,,,0.00,WUHU216HW,2013-05-04 07:46:00,
2013-05-04 00:51:00,44.3,41.0,30.07,SSE,158,0.0,0.0,88,0.00,,,0.00,WUHU216HW,2013-05-04 07:51:00,
2013-05-04 00:56:00,43.7,40.4,30.07,SSE,158,0.0,0.0,88,0.00,,,0.00,WUHU216HW,2013-05-04 07:56:00,
2013-05-04 01:01:00,43.6,40.6,30.07,SSE,158,0.0,0.0,89,0.00,,,0.00,WUHU216HW,2013-05-04 08:01:00,
2013-05-04 01:06:00,43.4,40.4,30.07,SSE,158,0.0,0.0,89,0.00,,,0.00,WUHU216HW,2013-05-04 08:06:00,
2013-05-04 01:11:00,43.4,40.4,30.07,SSE,158,0.0,0.0,89,0.00,,,0.00,WUHU216HW,2013-05-04 08:11:00,
2013-05-04 01:16:00,43.6,40.2,30.07,South,180,0.7,0.7,88,0.00,,,0.00,WUHU216HW,2013-05-04 08:16:00,
2013-05-04 01:21:00,43.2,39.9,30.07,South,180,0.0,0.7,88,0.00,,,0.00,WUHU216HW,2013-05-04 08:21:00,
2013-05-04 01:26:00,42.8,39.9,30.07,South,180,0.0,0.7,89,0.00,,,0.00,WUHU216HW,2013-05-04 08:26:00,
2013-05-04 01:31:00,42.8,39.9,30.07,South,180,0.0,0.0,89,0.00,,,0.00,WUHU216HW,2013-05-04 08:31:00,
2013-05-04 01:36:00,42.7,40.0,30.06,South,180,0.0,0.0,90,0.00,,,0.00,WUHU216HW,2013-05-04 08:36:00,
2013-05-04 01:41:00,42.5,39.8,30.06,South,180,0.0,0.0,90,0.00,,,0.00,WUHU216HW,2013-05-04 08:41:00,
2013-05-04 01:46:00,42.5,39.5,30.06,South,180,0.0,0.4,89,0.00,,,0.00,WUHU216HW,2013-05-04 08:46:00,
2013-05-04 01:51:00,42.3,39.3,30.07,South,180,0.0,0.4,89,0.00,,,0.00,WUHU216HW,2013-05-04 08:51:00,
2013-05-04 01:56:00,41.9,39.0,30.06,South,180,0.0,0.0,89,0.00,,,0.00,WUHU216HW,2013-05-04 08:56:00,
2013-05-04 02:01:00,41.8,39.1,30.06,South,180,0.0,0.0,90,0.00,,,0.00,WUHU216HW,2013-05-04 09:01:00,
2013-05-04 02:06:00,41.8,38.8,30.06,South,180,0.0,0.0,89,0.00,,,0.00,WUHU216HW,2013-05-04 09:06:00,
2013-05-04 02:11:00,41.8,38.8,30.06,South,180,0.0,0.0,89,0.00,,,0.00,WUHU216HW,2013-05-04 09:11:00,
2013-05-04 02:16:00,41.6,38.9,30.06,South,180,0.0,0.0,90,0.00,,,0.00,WUHU216HW,2013-05-04 09:16:00,
2013-05-04 02:21:00,41.4,38.7,30.06,South,180,0.0,0.0,90,0.00,,,0.00,WUHU216HW,2013-05-04 09:21:00,
2013-05-04 02:26:00,41.6,38.6,30.06,South,180,0.0,0.0,89,0.00,,,0.00,WUHU216HW,2013-05-04 09:26:00,
2013-05-04 02:32:00,41.4,38.7,30.06,South,180,0.0,0.0,90,0.00,,,0.00,WUHU216HW,2013-05-04 09:32:00,
2013-05-04 02:37:00,41.4,38.4,30.06,South,180,0.0,0.0,89,0.00,,,0.00,WUHU216HW,2013-05-04 09:37:00,
2013-05-04 02:42:00,40.9,38.2,30.06,South,180,0.0,0.0,90,0.00,,,0.00,WUHU216HW,2013-05-04 09:42:00,
2013-05-04 02:47:00,40.9,38.2,30.06,South,180,0.0,0.0,90,0.00,,,0.00,WUHU216HW,2013-05-04 09:47:00,
2013-05-04 02:52:00,40.7,38.0,30.06,South,180,0.0,0.0,90,0.00,,,0.00,WUHU216HW,2013-05-04 09:52:00,
2013-05-04 02:57:00,40.7,38.3,30.06,North,0,0.7,0.7,91,0.00,,,0.00,WUHU216HW,2013-05-04 09:57:00,
2013-05-04 03:02:00,40.5,37.8,30.06,North,0,0.0,0.7,90,0.00,,,0.00,WUHU216HW,2013-05-04 10:02:00,
2013-05-04 03:07:00,40.7,37.7,30.06,SW,225,0.0,0.4,89,0.00,,,0.00,WUHU216HW,2013-05-04 10:07:00,
2013-05-04 03:12:00,40.5,37.8,30.06,SW,225,0.0,0.4,90,0.00,,,0.00,WUHU216HW,2013-05-04 10:12:00,
2013-05-04 03:17:00,40.1,37.4,30.06,SSW,203,0.7,0.7,90,0.00,,,0.00,WUHU216HW,2013-05-04 10:17:00,
2013-05-04 03:22:00,40.1,37.2,30.06,SSW,203,0.2,0.9,89,0.00,,,0.00,WUHU216HW,2013-05-04 10:22:00,
2013-05-04 03:27:00,39.8,37.1,30.06,SSW,203,0.0,0.9,90,0.00,,,0.00,WUHU216HW,2013-05-04 10:27:00,
2013-05-04 03:32:00,39.8,37.4,30.06,SSW,203,0.0,0.0,91,0.00,,,0.00,WUHU216HW,2013-05-04 10:32:00,
2013-05-04 03:37:00,39.8,37.4,30.06,SSW,203,0.0,0.0,91,0.00,,,0.00,WUHU216HW,2013-05-04 10:37:00,
2013-05-04 03:42:00,39.6,37.2,30.06,SSW,203,0.0,0.0,91,0.00,,,0.00,WUHU216HW,2013-05-04 10:42:00,
2013-05-04 03:47:00,39.4,36.7,30.06,SSW,203,0.0,0.0,90,0.00,,,0.00,WUHU216HW,2013-05-04 10:47:00,
2013-05-04 03:52:00,39.2,36.8,30.06,SSW,203,0.0,0.0,91,0.00,,,0.00,WUHU216HW,2013-05-04 10:52:00,
2013-05-04 03:57:00,39.4,37.3,30.06,SSW,203,0.0,0.0,92,0.00,,,0.00,WUHU216HW,2013-05-04 10:57:00,
2013-05-04 04:02:00,39.2,36.8,30.06,SSW,203,0.0,0.0,91,0.00,,,0.00,WUHU216HW,2013-05-04 11:02:00,
2013-05-04 04:07:00,38.9,36.2,30.06,SSW,203,0.0,0.0,90,0.00,,,0.00,WUHU216HW,2013-05-04 11:07:00,
2013-05-04 04:12:00,38.7,36.0,30.06,SSW,203,0.0,0.0,90,0.00,,,0.00,WUHU216HW,2013-05-04 11:12:00,
2013-05-04 04:17:00,39.2,36.8,30.06,SSE,158,0.7,0.9,91,0.00,,,0.00,WUHU216HW,2013-05-04 11:17:00,
2013-05-04 04:22:00,39.2,36.8,30.06,South,180,1.6,2.0,91,0.00,,,0.00,WUHU216HW,2013-05-04 11:22:00,
2013-05-04 04:27:00,39.1,36.4,30.06,South,180,0.7,2.0,90,0.00,,,0.00,WUHU216HW,2013-05-04 11:27:00,
2013-05-04 04:32:00,38.9,36.2,30.06,South,180,0.0,0.7,90,0.00,,,0.00,WUHU216HW,2013-05-04 11:32:00,
2013-05-04 04:37:00,38.9,36.5,30.06,South,180,0.7,0.7,91,0.00,,,0.00,WUHU216HW,2013-05-04 11:37:00,
2013-05-04 04:42:00,38.7,36.0,30.06,South,180,0.0,0.7,90,0.00,,,0.00,WUHU216HW,2013-05-04 11:42:00,
2013-05-04 04:47:00,38.7,36.0,30.06,South,180,0.7,1.6,90,0.00,,,0.00,WUHU216HW,2013-05-04 11:47:00,
2013-05-04 04:52:00,38.5,35.8,30.05,South,180,0.0,1.6,90,0.00,,,0.00,WUHU216HW,2013-05-04 11:52:00,
2013-05-04 04:57:00,38.5,36.1,30.05,South,180,0.0,0.4,91,0.00,,,0.00,WUHU216HW,2013-05-04 11:57:00,
2013-05-04 05:03:00,38.3,35.6,30.05,South,180,0.0,0.0,90,0.00,,,0.00,WUHU216HW,2013-05-04 12:03:00,
2013-05-04 05:08:00,38.3,35.9,30.06,South,180,0.0,0.0,91,0.00,,,0.00,WUHU216HW,2013-05-04 12:08:00,
2013-05-04 05:13:00,38.2,35.7,30.06,South,180,0.0,0.0,91,0.00,,,0.00,WUHU216HW,2013-05-04 12:13:00,
2013-05-04 05:18:00,38.0,35.6,30.06,South,180,0.0,0.0,91,0.00,,,0.00,WUHU216HW,2013-05-04 12:18:00,
2013-05-04 05:23:00,38.0,35.6,30.06,South,180,0.0,0.0,91,0.00,,,0.00,WUHU216HW,2013-05-04 12:23:00,
2013-05-04 05:28:00,37.8,35.1,30.06,South,180,0.0,0.0,90,0.00,,,0.00,WUHU216HW,2013-05-04 12:28:00,
2013-05-04 05:33:00,37.8,35.4,30.06,South,180,0.0,0.0,91,0.00,,,0.00,WUHU216HW,2013-05-04 12:33:00,
2013-05-04 05:39:00,37.8,35.1,30.06,South,180,0.0,0.0,90,0.00,,,0.00,WUHU216HW,2013-05-04 12:39:00,
2013-05-04 05:44:00,37.8,35.1,30.05,South,180,0.0,0.0,90,0.00,,,0.00,WUHU216HW,2013-05-04 12:44:00,
2013-05-04 05:49:00,37.6,35.5,30.05,South,180,0.0,0.0,92,0.00,,,0.00,WUHU216HW,2013-05-04 12:49:00,
2013-05-04 05:54:00,37.8,35.4,30.05,South,180,0.0,0.0,91,0.00,,,0.00,WUHU216HW,2013-05-04 12:54:00,
2013-05-04 05:59:00,37.8,35.1,30.05,South,180,0.4,1.6,90,0.00,,,0.00,WUHU216HW,2013-05-04 12:59:00,
2013-05-04 06:03:00,37.8,35.1,30.05,South,180,0.0,1.6,90,0.00,,,0.00,WUHU216HW,2013-05-04 13:03:00,
2013-05-04 06:08:00,37.3,34.6,30.06,South,180,0.0,0.4,90,0.00,,,0.00,WUHU216HW,2013-05-04 13:08:00,
2013-05-04 06:13:00,37.3,34.8,30.06,South,180,0.0,0.0,91,0.00,,,0.00,WUHU216HW,2013-05-04 13:13:00,
2013-05-04 06:18:00,37.6,35.5,30.06,South,180,0.0,0.0,92,0.00,,,0.00,WUHU216HW,2013-05-04 13:18:00,
2013-05-04 06:23:00,37.8,35.6,30.06,North,0,0.0,0.7,92,0.00,,,0.00,WUHU216HW,2013-05-04 13:23:00,
2013-05-04 06:28:00,37.8,35.4,30.06,SSW,203,0.0,0.7,91,0.00,,,0.00,WUHU216HW,2013-05-04 13:28:00,
2013-05-04 06:33:00,37.8,35.6,30.06,NNW,338,0.0,0.9,92,0.00,,,0.00,WUHU216HW,2013-05-04 13:33:00,
2013-05-04 06:38:00,38.0,35.8,30.06,North,0,1.1,1.3,92,0.00,,,0.00,WUHU216HW,2013-05-04 13:38:00,
2013-05-04 06:43:00,38.0,36.1,30.06,East,90,0.4,1.3,93,0.00,,,0.00,WUHU216HW,2013-05-04 13:43:00,
2013-05-04 06:48:00,38.3,36.2,30.06,South,180,0.4,1.6,92,0.00,,,0.00,WUHU216HW,2013-05-04 13:48:00,
2013-05-04 06:53:00,38.2,36.0,30.06,South,180,0.0,1.6,92,0.00,,,0.00,WUHU216HW,2013-05-04 13:53:00,
2013-05-04 06:58:00,38.2,36.0,30.06,ESE,113,0.0,0.2,92,0.00,,,0.00,WUHU216HW,2013-05-04 13:58:00,
2013-05-04 07:03:00,38.2,36.0,30.06,ESE,113,0.0,0.0,92,0.00,,,0.00,WUHU216HW,2013-05-04 14:03:00,
2013-05-04 07:08:00,38.3,36.2,30.06,ESE,113,0.0,0.0,92,0.00,,,0.00,WUHU216HW,2013-05-04 14:08:00,
2013-05-04 07:13:00,38.3,36.5,30.07,NNE,23,0.0,1.1,93,0.00,,,0.00,WUHU216HW,2013-05-04 14:13:00,
2013-05-04 07:18:00,38.5,36.6,30.07,NNE,23,0.4,1.1,93,0.00,,,0.00,WUHU216HW,2013-05-04 14:18:00,
2013-05-04 07:23:00,38.9,37.0,30.06,NE,45,0.9,1.6,93,0.00,,,0.00,WUHU216HW,2013-05-04 14:23:00,
2013-05-04 07:28:00,39.1,37.2,30.06,SSE,158,1.6,1.6,93,0.00,,,0.00,WUHU216HW,2013-05-04 14:28:00,
2013-05-04 07:33:00,39.8,37.9,30.06,NNE,23,1.8,1.8,93,0.00,,,0.00,WUHU216HW,2013-05-04 14:33:00,
2013-05-04 07:38:00,40.3,38.7,30.06,North,0,0.7,2.2,94,0.00,,,0.00,WUHU216HW,2013-05-04 14:38:00,
2013-05-04 07:43:00,40.7,39.1,30.06,NNE,23,1.1,2.2,94,0.00,,,0.00,WUHU216HW,2013-05-04 14:43:00,
2013-05-04 07:48:00,41.2,39.6,30.06,ESE,113,0.0,2.2,94,0.00,,,0.00,WUHU216HW,2013-05-04 14:48:00,
2013-05-04 07:53:00,41.4,39.8,30.06,NNE,23,1.8,1.8,94,0.00,,,0.00,WUHU216HW,2013-05-04 14:53:00,
2013-05-04 07:58:00,41.9,40.3,30.06,South,180,0.4,1.8,94,0.00,,,0.00,WUHU216HW,2013-05-04 14:58:00,
2013-05-04 08:03:00,42.7,41.0,30.06,ENE,68,0.2,1.1,94,0.00,,,0.00,WUHU216HW,2013-05-04 15:03:00,
2013-05-04 08:08:00,43.0,41.4,30.06,ENE,68,0.0,1.1,94,0.00,,,0.00,WUHU216HW,2013-05-04 15:08:00,
2013-05-04 08:13:00,43.6,41.9,30.06,NE,45,0.7,0.7,94,0.00,,,0.00,WUHU216HW,2013-05-04 15:13:00,
2013-05-04 08:18:00,45.0,43.1,30.06,NNE,23,1.3,1.8,93,0.00,,,0.00,WUHU216HW,2013-05-04 15:18:00,
2013-05-04 08:23:00,46.1,44.2,30.06,North,0,1.8,1.8,93,0.00,,,0.00,WUHU216HW,2013-05-04 15:23:00,
2013-05-04 08:28:00,48.4,46.0,30.06,NNE,23,0.2,1.8,91,0.00,,,0.00,WUHU216HW,2013-05-04 15:28:00,
2013-05-04 08:33:00,49.5,47.3,30.06,West,270,0.9,1.8,92,0.00,,,0.00,WUHU216HW,2013-05-04 15:33:00,
2013-05-04 08:38:00,50.9,48.3,30.06,NNE,23,1.8,1.8,91,0.00,,,0.00,WUHU216HW,2013-05-04 15:38:00,
2013-05-04 08:43:00,51.8,49.5,30.05,NNW,338,2.5,2.5,92,0.00,,,0.00,WUHU216HW,2013-05-04 15:43:00,
2013-05-04 08:48:00,53.3,49.5,30.05,North,0,1.3,4.0,87,0.00,,,0.00,WUHU216HW,2013-05-04 15:48:00,
2013-05-04 08:53:00,54.7,50.2,30.05,NNE,23,1.6,4.0,85,0.00,,,0.00,WUHU216HW,2013-05-04 15:53:00,
2013-05-04 08:58:00,56.3,50.6,30.05,NNW,338,0.4,3.4,81,0.00,,,0.00,WUHU216HW,2013-05-04 15:58:00,
2013-05-04 09:03:00,58.5,51.7,30.05,NNE,23,0.9,1.6,78,0.00,,,0.00,WUHU216HW,2013-05-04 16:03:00,
2013-05-04 09:08:00,58.7,51.1,30.05,West,270,0.4,3.6,76,0.00,,,0.00,WUHU216HW,2013-05-04 16:08:00,
2013-05-04 09:14:00,60.1,51.8,30.04,NNW,338,1.1,3.6,74,0.00,,,0.00,WUHU216HW,2013-05-04 16:14:00,
2013-05-04 09:19:00,61.2,52.6,30.04,WNW,293,1.1,2.0,73,0.00,,,0.00,WUHU216HW,2013-05-04 16:19:00,
2013-05-04 09:24:00,62.3,53.5,30.04,NW,315,2.9,3.4,73,0.00,,,0.00,WUHU216HW,2013-05-04 16:24:00,
2013-05-04 09:28:00,63.7,54.2,30.04,North,0,0.9,3.4,71,0.00,,,0.00,WUHU216HW,2013-05-04 16:28:00,
2013-05-04 09:33:00,63.7,53.4,30.04,NNW,338,1.8,2.7,69,0.00,,,0.00,WUHU216HW,2013-05-04 16:33:00,
2013-05-04 09:38:00,64.6,53.8,30.04,NNE,23,1.8,2.5,68,0.00,,,0.00,WUHU216HW,2013-05-04 16:38:00,
2013-05-04 09:43:00,65.0,53.7,30.04,NNW,338,0.7,2.5,67,0.00,,,0.00,WUHU216HW,2013-05-04 16:43:00,
2013-05-04 09:48:00,65.2,52.2,30.04,North,0,2.5,4.0,63,0.00,,,0.00,WUHU216HW,2013-05-04 16:48:00,
2013-05-04 09:53:00,65.3,51.1,30.04,North,0,1.6,4.0,60,0.00,,,0.00,WUHU216HW,2013-05-04 16:53:00,
2013-05-04 09:59:00,65.0,50.8,30.04,NNW,338,1.1,4.0,60,0.00,,,0.00,WUHU216HW,2013-05-04 16:59:00,
2013-05-04 10:04:00,65.2,52.2,30.04,NNE,23,3.1,5.4,63,0.00,,,0.00,WUHU216HW,2013-05-04 17:04:00,
2013-05-04 10:09:00,65.5,49.9,30.04,NNW,338,3.8,5.4,57,0.00,,,0.00,WUHU216HW,2013-05-04 17:09:00,
2013-05-04 10:14:00,65.9,48.8,30.03,West,270,2.2,6.3,54,0.00,,,0.00,WUHU216HW,2013-05-04 17:14:00,
2013-05-04 10:19:00,66.6,50.0,30.03,NW,315,2.5,6.3,55,0.00,,,0.00,WUHU216HW,2013-05-04 17:19:00,
2013-05-04 10:24:00,67.3,48.6,30.03,NNE,23,4.7,4.7,51,0.00,,,0.00,WUHU216HW,2013-05-04 17:24:00,
2013-05-04 10:29:00,67.1,50.4,30.03,NNW,338,3.4,5.1,55,0.00,,,0.00,WUHU216HW,2013-05-04 17:29:00,
2013-05-04 10:34:00,67.7,51.4,30.02,North,0,2.9,6.7,56,0.00,,,0.00,WUHU216HW,2013-05-04 17:34:00,
2013-05-04 10:39:00,68.4,51.0,30.02,North,0,1.6,6.7,54,0.00,,,0.00,WUHU216HW,2013-05-04 17:39:00,
2013-05-04 10:44:00,68.4,50.6,30.02,NNW,338,2.0,5.4,53,0.00,,,0.00,WUHU216HW,2013-05-04 17:44:00,
2013-05-04 10:49:00,68.0,51.2,30.02,NNW,338,3.8,3.8,55,0.00,,,0.00,WUHU216HW,2013-05-04 17:49:00,
2013-05-04 10:54:00,68.2,50.4,30.02,NE,45,2.2,5.4,53,0.00,,,0.00,WUHU216HW,2013-05-04 17:54:00,
2013-05-04 10:59:00,68.2,50.4,30.01,NNW,338,3.4,5.4,53,0.00,,,0.00,WUHU216HW,2013-05-04 17:59:00,
2013-05-04 11:04:00,68.6,50.8,30.01,North,0,3.4,5.4,53,0.00,,,0.00,WUHU216HW,2013-05-04 18:04:00,
2013-05-04 11:09:00,69.5,50.6,30.01,North,0,3.1,5.4,51,0.00,,,0.00,WUHU216HW,2013-05-04 18:09:00,
2013-05-04 11:14:00,70.2,50.8,30.01,NNE,23,4.0,6.5,50,0.00,,,0.00,WUHU216HW,2013-05-04 18:14:00,
2013-05-04 11:19:00,70.6,49.9,30.01,NNW,338,3.4,6.7,48,0.00,,,0.00,WUHU216HW,2013-05-04 18:19:00,
2013-05-04 11:24:00,70.9,50.2,30.01,NNE,23,5.4,7.6,48,0.00,,,0.00,WUHU216HW,2013-05-04 18:24:00,
2013-05-04 11:29:00,71.3,50.0,30.01,NNW,338,3.6,7.6,47,0.00,,,0.00,WUHU216HW,2013-05-04 18:29:00,
2013-05-04 11:34:00,71.8,50.4,30.01,NW,315,7.2,7.2,47,0.00,,,0.00,WUHU216HW,2013-05-04 18:34:00,
2013-05-04 11:39:00,72.2,49.0,30.01,North,0,5.1,8.9,44,0.00,,,0.00,WUHU216HW,2013-05-04 18:39:00,
2013-05-04 11:44:00,72.5,48.1,30.00,North,0,6.7,8.9,42,0.00,,,0.00,WUHU216HW,2013-05-04 18:44:00,
2013-05-04 11:49:00,72.4,47.9,30.00,NNE,23,9.8,9.8,42,0.00,,,0.00,WUHU216HW,2013-05-04 18:49:00,
2013-05-04 11:54:00,72.9,49.6,29.99,North,0,6.3,9.8,44,0.00,,,0.00,WUHU216HW,2013-05-04 18:54:00,
2013-05-04 11:59:00,73.3,48.2,29.99,NE,45,10.5,10.5,41,0.00,,,0.00,WUHU216HW,2013-05-04 18:59:00,
2013-05-04 12:04:00,73.8,49.2,30.00,NW,315,8.5,10.5,42,0.00,,,0.00,WUHU216HW,2013-05-04 19:04:00,
2013-05-04 12:09:00,74.5,49.9,29.99,North,0,4.7,8.5,42,0.00,,,0.00,WUHU216HW,2013-05-04 19:09:00,
2013-05-04 12:14:00,74.9,49.0,29.99,NNE,23,5.6,9.8,40,0.00,,,0.00,WUHU216HW,2013-05-04 19:14:00,
2013-05-04 12:19:00,76.1,50.1,29.99,NNW,338,4.7,9.8,40,0.00,,,0.00,WUHU216HW,2013-05-04 19:19:00,
2013-05-04 12:24:00,76.5,51.0,29.98,NNE,23,7.6,9.4,41,0.00,,,0.00,WUHU216HW,2013-05-04 19:24:00,
2013-05-04 12:29:00,76.3,50.3,29.98,NW,315,5.8,9.4,40,0.00,,,0.00,WUHU216HW,2013-05-04 19:29:00,
2013-05-04 12:34:00,77.2,50.3,29.97,WNW,293,8.1,8.1,39,0.00,,,0.00,WUHU216HW,2013-05-04 19:34:00,
2013-05-04 12:39:00,77.6,49.9,29.97,NNW,338,4.9,8.1,38,0.00,,,0.00,WUHU216HW,2013-05-04 19:39:00,
2013-05-04 12:44:00,77.8,47.8,29.97,NNE,23,8.7,11.4,35,0.00,,,0.00,WUHU216HW,2013-05-04 19:44:00,
2013-05-04 12:49:00,77.8,47.8,29.97,NNW,338,6.9,11.4,35,0.00,,,0.00,WUHU216HW,2013-05-04 19:49:00,
2013-05-04 12:54:00,78.5,50.0,29.97,NNW,338,4.7,9.8,37,0.00,,,0.00,WUHU216HW,2013-05-04 19:54:00,
2013-05-04 12:59:00,79.2,49.1,29.96,NE,45,5.1,7.8,35,0.00,,,0.00,WUHU216HW,2013-05-04 19:59:00,
2013-05-04 13:04:00,79.6,48.6,29.96,NW,315,8.3,8.3,34,0.00,,,0.00,WUHU216HW,2013-05-04 20:04:00,
2013-05-04 13:09:00,79.9,47.3,29.96,North,0,12.1,12.1,32,0.00,,,0.00,WUHU216HW,2013-05-04 20:09:00,
2013-05-04 13:14:00,79.4,47.6,29.96,NNE,23,5.8,12.1,33,0.00,,,0.00,WUHU216HW,2013-05-04 20:14:00,
2013-05-04 13:19:00,79.6,47.8,29.96,North,0,6.3,7.6,33,0.00,,,0.00,WUHU216HW,2013-05-04 20:19:00,
2013-05-04 13:24:00,79.6,47.8,29.95,NW,315,6.9,11.4,33,0.00,,,0.00,WUHU216HW,2013-05-04 20:24:00,
2013-05-04 13:29:00,79.9,48.2,29.95,North,0,4.3,11.4,33,0.00,,,0.00,WUHU216HW,2013-05-04 20:29:00,
2013-05-04 13:34:00,79.9,48.9,29.95,NNW,338,2.9,11.9,34,0.00,,,0.00,WUHU216HW,2013-05-04 20:34:00,
2013-05-04 13:39:00,79.4,47.6,29.95,North,0,12.8,13.2,33,0.00,,,0.00,WUHU216HW,2013-05-04 20:39:00,
2013-05-04 13:44:00,78.5,47.6,29.94,NE,45,11.4,13.2,34,0.00,,,0.00,WUHU216HW,2013-05-04 20:44:00,
2013-05-04 13:49:00,79.0,49.6,29.94,NNW,338,3.6,13.2,36,0.00,,,0.00,WUHU216HW,2013-05-04 20:49:00,
2013-05-04 13:54:00,79.9,48.9,29.94,NNE,23,3.8,13.2,34,0.00,,,0.00,WUHU216HW,2013-05-04 20:54:00,
2013-05-04 13:59:00,81.2,49.2,29.93,NNW,338,6.3,8.5,33,0.00,,,0.00,WUHU216HW,2013-05-04 20:59:00,
2013-05-04 14:04:00,80.3,48.4,29.93,NNW,338,6.7,12.8,33,0.00,,,0.00,WUHU216HW,2013-05-04 21:04:00,
2013-05-04 14:09:00,80.6,48.0,29.93,North,0,5.4,12.8,32,0.00,,,0.00,WUHU216HW,2013-05-04 21:09:00,
2013-05-04 14:14:00,80.8,49.7,29.93,NNW,338,4.0,8.7,34,0.00,,,0.00,WUHU216HW,2013-05-04 21:14:00,
2013-05-04 14:19:00,81.4,46.0,29.93,NW,315,6.3,10.5,29,0.00,,,0.00,WUHU216HW,2013-05-04 21:19:00,
2013-05-04 14:24:00,80.6,46.4,29.93,NNW,338,6.5,11.0,30,0.00,,,0.00,WUHU216HW,2013-05-04 21:24:00,
2013-05-04 14:29:00,80.8,46.6,29.93,NW,315,5.4,11.0,30,0.00,,,0.00,WUHU216HW,2013-05-04 21:29:00,
2013-05-04 14:34:00,81.4,47.8,29.93,NW,315,5.8,10.5,31,0.00,,,0.00,WUHU216HW,2013-05-04 21:34:00,
2013-05-04 14:39:00,81.2,46.9,29.92,NW,315,5.4,8.3,30,0.00,,,0.00,WUHU216HW,2013-05-04 21:39:00,
2013-05-04 14:44:00,81.4,47.8,29.92,NE,45,6.0,7.6,31,0.00,,,0.00,WUHU216HW,2013-05-04 21:44:00,
2013-05-04 14:49:00,81.2,46.9,29.92,NNW,338,5.4,7.6,30,0.00,,,0.00,WUHU216HW,2013-05-04 21:49:00,
2013-05-04 14:54:00,81.0,48.2,29.92,NNW,338,6.3,8.7,32,0.00,,,0.00,WUHU216HW,2013-05-04 21:54:00,
2013-05-04 14:59:00,81.0,47.5,29.91,NNW,338,9.2,12.5,31,0.00,,,0.00,WUHU216HW,2013-05-04 21:59:00,
2013-05-04 15:04:00,80.6,48.0,29.91,NNW,338,3.8,12.5,32,0.00,,,0.00,WUHU216HW,2013-05-04 22:04:00,
2013-05-04 15:09:00,80.8,48.2,29.91,NW,315,4.0,11.2,32,0.00,,,0.00,WUHU216HW,2013-05-04 22:09:00,
2013-05-04 15:14:00,80.5,47.1,29.91,ENE,68,8.5,11.2,31,0.00,,,0.00,WUHU216HW,2013-05-04 22:14:00,
2013-05-04 15:19:00,80.5,48.6,29.91,North,0,1.8,11.6,33,0.00,,,0.00,WUHU216HW,2013-05-04 22:19:00,
2013-05-04 15:24:00,80.6,48.0,29.91,North,0,7.4,11.6,32,0.00,,,0.00,WUHU216HW,2013-05-04 22:24:00,
2013-05-04 15:29:00,81.0,49.1,29.91,NNE,23,6.5,9.6,33,0.00,,,0.00,WUHU216HW,2013-05-04 22:29:00,
2013-05-04 15:34:00,81.4,47.0,29.91,ESE,113,6.0,8.5,30,0.00,,,0.00,WUHU216HW,2013-05-04 22:34:00,
2013-05-04 15:39:00,80.6,46.4,29.90,NE,45,7.6,9.8,30,0.00,,,0.00,WUHU216HW,2013-05-04 22:39:00,
2013-05-04 15:44:00,80.6,47.3,29.90,WNW,293,6.9,9.8,31,0.00,,,0.00,WUHU216HW,2013-05-04 22:44:00,
2013-05-04 15:49:00,80.6,47.3,29.90,WNW,293,4.0,9.2,31,0.00,,,0.00,WUHU216HW,2013-05-04 22:49:00,
2013-05-04 15:54:00,80.5,47.8,29.89,NNW,338,4.9,8.9,32,0.00,,,0.00,WUHU216HW,2013-05-04 22:54:00,
2013-05-04 15:59:00,80.5,45.3,29.89,North,0,4.7,15.0,29,0.00,,,0.00,WUHU216HW,2013-05-04 22:59:00,
2013-05-04 16:04:00,80.5,45.3,29.89,NNW,338,3.4,15.0,29,0.00,,,0.00,WUHU216HW,2013-05-04 23:04:00,
2013-05-04 16:09:00,80.6,44.4,29.89,North,0,9.2,18.1,28,0.00,,,0.00,WUHU216HW,2013-05-04 23:09:00,
2013-05-04 16:14:00,80.5,45.3,29.89,NNW,338,9.2,18.1,29,0.00,,,0.00,WUHU216HW,2013-05-04 23:14:00,
2013-05-04 16:19:00,80.6,46.4,29.89,NW,315,4.0,11.2,30,0.00,,,0.00,WUHU216HW,2013-05-04 23:19:00,
2013-05-04 16:24:00,81.2,44.8,29.89,NNE,23,4.3,5.6,28,0.00,,,0.00,WUHU216HW,2013-05-04 23:24:00,
2013-05-04 16:29:00,81.4,44.9,29.88,NNW,338,6.0,8.3,28,0.00,,,0.00,WUHU216HW,2013-05-04 23:29:00,
2013-05-04 16:34:00,81.5,45.1,29.88,NNE,23,3.1,8.3,28,0.00,,,0.00,WUHU216HW,2013-05-04 23:34:00,
2013-05-04 16:39:00,81.0,44.6,29.88,North,0,6.7,9.2,28,0.00,,,0.00,WUHU216HW,2013-05-04 23:39:00,
2013-05-04 16:44:00,80.8,44.5,29.88,North,0,7.2,9.2,28,0.00,,,0.00,WUHU216HW,2013-05-04 23:44:00,
2013-05-04 16:49:00,81.4,44.9,29.88,WSW,248,5.4,8.9,28,0.00,,,0.00,WUHU216HW,2013-05-04 23:49:00,
2013-05-04 16:54:00,81.0,44.6,29.88,North,0,3.6,8.5,28,0.00,,,0.00,WUHU216HW,2013-05-04 23:54:00,
2013-05-04 16:59:00,81.0,43.6,29.88,NW,315,2.0,8.5,27,0.00,,,0.00,WUHU216HW,2013-05-04 23:59:00,
2013-05-04 17:04:00,80.8,45.5,29.88,NNW,338,9.2,9.2,29,0.00,,,0.00,WUHU216HW,2013-05-05 00:04:00,
2013-05-04 17:09:00,80.8,45.5,29.88,NNE,23,3.8,9.2,29,0.00,,,0.00,WUHU216HW,2013-05-05 00:09:00,
2013-05-04 17:14:00,79.9,44.7,29.88,NE,45,4.7,13.6,29,0.00,,,0.00,WUHU216HW,2013-05-05 00:14:00,
2013-05-04 17:19:00,80.1,44.9,29.88,SSE,158,3.6,13.6,29,0.00,,,0.00,WUHU216HW,2013-05-05 00:19:00,
2013-05-04 17:24:00,80.1,46.0,29.88,North,0,2.5,6.9,30,0.00,,,0.00,WUHU216HW,2013-05-05 00:24:00,
2013-05-04 17:29:00,80.1,46.0,29.87,NNE,23,4.3,9.2,30,0.00,,,0.00,WUHU216HW,2013-05-05 00:29:00,
2013-05-04 17:34:00,80.3,45.1,29.87,NNW,338,4.9,9.4,29,0.00,,,0.00,WUHU216HW,2013-05-05 00:34:00,
2013-05-04 17:39:00,80.5,43.1,29.87,North,0,7.6,9.4,27,0.00,,,0.00,WUHU216HW,2013-05-05 00:39:00,
2013-05-04 17:44:00,80.3,44.0,29.87,NNW,338,4.7,9.2,28,0.00,,,0.00,WUHU216HW,2013-05-05 00:44:00,
2013-05-04 17:49:00,80.5,44.2,29.87,NNW,338,5.4,6.7,28,0.00,,,0.00,WUHU216HW,2013-05-05 00:49:00,
2013-05-04 17:54:00,79.6,41.3,29.87,North,0,7.2,8.7,26,0.00,,,0.00,WUHU216HW,2013-05-05 00:54:00,
2013-05-04 17:59:00,79.4,40.1,29.87,WNW,293,6.9,12.3,25,0.00,,,0.00,WUHU216HW,2013-05-05 00:59:00,
2013-05-04 18:04:00,79.7,39.3,29.86,WNW,293,6.7,12.3,24,0.00,,,0.00,WUHU216HW,2013-05-05 01:04:00,
2013-05-04 18:09:00,79.2,40.0,29.86,NW,315,3.8,9.2,25,0.00,,,0.00,WUHU216HW,2013-05-05 01:09:00,
2013-05-04 18:14:00,79.6,41.3,29.86,WNW,293,5.8,9.2,26,0.00,,,0.00,WUHU216HW,2013-05-05 01:14:00,
2013-05-04 18:19:00,79.0,37.7,29.86,North,0,2.0,8.9,23,0.00,,,0.00,WUHU216HW,2013-05-05 01:19:00,
2013-05-04 18:24:00,78.7,39.4,29.86,North,0,5.4,9.2,25,0.00,,,0.00,WUHU216HW,2013-05-05 01:24:00,
2013-05-04 18:29:00,78.3,40.2,29.86,NNW,338,3.6,9.2,26,0.00,,,0.00,WUHU216HW,2013-05-05 01:29:00,
2013-05-04 18:34:00,78.5,40.3,29.86,North,0,5.1,10.3,26,0.00,,,0.00,WUHU216HW,2013-05-05 01:34:00,
2013-05-04 18:39:00,78.1,40.1,29.86,NNE,23,8.9,10.3,26,0.00,,,0.00,WUHU216HW,2013-05-05 01:39:00,
2013-05-04 18:44:00,76.9,39.1,29.86,North,0,10.1,10.1,26,0.00,,,0.00,WUHU216HW,2013-05-05 01:44:00,
2013-05-04 18:49:00,76.1,39.5,29.86,NNE,23,5.1,10.1,27,0.00,,,0.00,WUHU216HW,2013-05-05 01:49:00,
2013-05-04 18:54:00,75.8,40.1,29.86,NW,315,1.6,9.4,28,0.00,,,0.00,WUHU216HW,2013-05-05 01:54:00,
2013-05-04 18:59:00,75.4,40.9,29.86,WNW,293,1.6,9.4,29,0.00,,,0.00,WUHU216HW,2013-05-05 01:59:00,
2013-05-04 19:04:00,75.1,41.6,29.85,NW,315,3.1,6.9,30,0.00,,,0.00,WUHU216HW,2013-05-05 02:04:00,
2013-05-04 19:09:00,74.7,40.2,29.85,NW,315,4.0,8.3,29,0.00,,,0.00,WUHU216HW,2013-05-05 02:09:00,
2013-05-04 19:14:00,74.9,41.4,29.85,ENE,68,3.8,8.3,30,0.00,,,0.00,WUHU216HW,2013-05-05 02:14:00,
2013-05-04 19:19:00,74.7,41.3,29.85,West,270,3.8,6.9,30,0.00,,,0.00,WUHU216HW,2013-05-05 02:19:00,
2013-05-04 19:25:00,74.5,41.9,29.85,West,270,2.5,5.6,31,0.00,,,0.00,WUHU216HW,2013-05-05 02:25:00,
2013-05-04 19:30:00,73.8,41.9,29.85,NNW,338,0.4,5.6,32,0.00,,,0.00,WUHU216HW,2013-05-05 02:30:00,
2013-05-04 19:34:00,73.3,41.5,29.85,North,0,4.7,4.7,32,0.00,,,0.00,WUHU216HW,2013-05-05 02:34:00,
2013-05-04 19:36:00,73.1,41.4,29.85,NW,315,0.7,0.7,32,0.00,,,0.00,WUHU216HW,2013-05-05 02:36:00,
2013-05-04 19:40:00,73.1,41.4,29.85,NW,315,0.7,4.7,32,0.00,,,0.00,WUHU216HW,2013-05-05 02:40:00,
2013-05-04 19:45:00,73.1,41.4,29.85,NW,315,0.7,2.0,32,0.00,,,0.00,WUHU216HW,2013-05-05 02:45:00,
2013-05-04 20:00:00,68.6,43.3,29.85,NW,315,0.4,0.4,40,0.00,,,0.00,WUHU216HW,2013-05-05 03:00:00,
2013-05-04 20:05:00,67.3,44.0,29.85,East,90,0.0,0.9,43,0.00,,,0.00,WUHU216HW,2013-05-05 03:05:00,
2013-05-04 20:10:00,66.1,44.0,29.85,South,180,0.0,0.9,45,0.00,,,0.00,WUHU216HW,2013-05-05 03:10:00,
2013-05-04 20:15:00,64.8,44.6,29.85,SSW,203,0.9,0.9,48,0.00,,,0.00,WUHU216HW,2013-05-05 03:15:00,
2013-05-04 20:20:00,63.7,45.7,29.86,NE,45,0.9,0.9,52,0.00,,,0.00,WUHU216HW,2013-05-05 03:20:00,
2013-05-04 20:25:00,63.0,46.5,29.86,North,0,0.4,1.3,55,0.00,,,0.00,WUHU216HW,2013-05-05 03:25:00,
2013-05-04 20:30:00,62.3,45.8,29.86,South,180,0.4,1.3,55,0.00,,,0.00,WUHU216HW,2013-05-05 03:30:00,
2013-05-04 20:32:00,62.1,45.7,29.86,ENE,68,0.4,0.4,55,0.00,,,0.00,WUHU216HW,2013-05-05 03:32:00,
2013-05-04 20:35:00,62.1,45.7,29.86,ENE,68,0.4,1.8,55,0.00,,,0.00,WUHU216HW,2013-05-05 03:35:00,
2013-05-04 20:40:00,62.1,45.7,29.86,ENE,68,0.4,1.8,55,0.00,,,0.00,WUHU216HW,2013-05-05 03:40:00,
2013-05-04 21:00:00,63.4,44.4,29.86,East,90,0.2,0.2,50,0.00,,,0.00,WUHU216HW,2013-05-05 04:00:00,
2013-05-04 21:01:00,63.4,44.4,29.86,East,90,0.2,0.2,50,0.00,,,0.00,WUHU216HW,2013-05-05 04:01:00,
2013-05-04 21:06:00,61.9,44.1,29.86,NNW,338,2.9,2.9,52,0.00,,,0.00,WUHU216HW,2013-05-05 04:06:00,
2013-05-04 21:11:00,62.1,45.2,29.86,North,0,2.5,3.4,54,0.00,,,0.00,WUHU216HW,2013-05-05 04:11:00,
2013-05-04 21:16:00,62.6,45.7,29.86,NNW,338,1.3,4.0,54,0.00,,,0.00,WUHU216HW,2013-05-05 04:16:00,
2013-05-04 21:21:00,61.9,46.0,29.86,NNW,338,1.6,4.0,56,0.00,,,0.00,WUHU216HW,2013-05-05 04:21:00,
2013-05-04 21:26:00,61.2,44.9,29.86,South,180,0.7,2.9,55,0.00,,,0.00,WUHU216HW,2013-05-05 04:26:00,
2013-05-04 21:31:00,60.5,44.7,29.86,SSW,203,2.0,2.0,56,0.00,,,0.00,WUHU216HW,2013-05-05 04:31:00,
2013-05-04 21:36:00,59.9,45.1,29.86,SSE,158,1.1,2.7,58,0.00,,,0.00,WUHU216HW,2013-05-05 04:36:00,
2013-05-04 21:41:00,59.4,46.0,29.86,NNW,338,0.0,2.7,61,0.00,,,0.00,WUHU216HW,2013-05-05 04:41:00,
2013-05-04 21:46:00,58.9,44.6,29.86,NNW,338,1.8,1.8,59,0.00,,,0.00,WUHU216HW,2013-05-05 04:46:00,
2013-05-04 21:51:00,58.9,45.8,29.86,NNW,338,0.9,3.8,62,0.00,,,0.00,WUHU216HW,2013-05-05 04:51:00,
2013-05-04 21:56:00,58.7,46.1,29.86,North,0,0.0,3.8,63,0.00,,,0.00,WUHU216HW,2013-05-05 04:56:00,
2013-05-04 22:01:00,58.1,45.2,29.86,SE,135,0.0,1.1,62,0.00,,,0.00,WUHU216HW,2013-05-05 05:01:00,
2013-05-04 22:06:00,57.2,46.7,29.86,North,0,1.8,1.8,68,0.00,,,0.00,WUHU216HW,2013-05-05 05:06:00,
2013-05-04 22:11:00,56.7,46.3,29.86,NNW,338,1.8,2.9,68,0.00,,,0.00,WUHU216HW,2013-05-05 05:11:00,
2013-05-04 22:16:00,56.9,47.2,29.86,North,0,1.3,3.6,70,0.00,,,0.00,WUHU216HW,2013-05-05 05:16:00,
2013-05-04 22:21:00,56.7,47.1,29.86,NNE,23,0.7,3.6,70,0.00,,,0.00,WUHU216HW,2013-05-05 05:21:00,
2013-05-04 22:26:00,56.2,47.3,29.85,NE,45,0.4,1.6,72,0.00,,,0.00,WUHU216HW,2013-05-05 05:26:00,
2013-05-04 22:29:00,55.8,46.9,29.85,NE,45,0.7,0.7,72,0.00,,,0.00,WUHU216HW,2013-05-05 05:29:00,
2013-05-04 22:31:00,55.8,46.9,29.85,NE,45,0.7,1.3,72,0.00,,,0.00,WUHU216HW,2013-05-05 05:31:00,
2013-05-04 22:36:00,55.8,46.9,29.85,NE,45,0.7,1.3,72,0.00,,,0.00,WUHU216HW,2013-05-05 05:36:00,
2013-05-04 22:59:00,53.3,44.5,29.85,SSE,158,0.4,0.4,72,0.00,,,0.00,WUHU216HW,2013-05-05 05:59:00,
2013-05-04 23:04:00,52.7,44.7,29.85,SSE,158,0.4,0.7,74,0.00,,,0.00,WUHU216HW,2013-05-05 06:04:00,
2013-05-04 23:09:00,52.2,44.6,29.85,South,180,0.0,0.7,75,0.00,,,0.00,WUHU216HW,2013-05-05 06:09:00,
2013-05-04 23:14:00,51.8,45.2,29.84,SSE,158,1.1,1.1,78,0.00,,,0.00,WUHU216HW,2013-05-05 06:14:00,
2013-05-04 23:19:00,51.7,44.0,29.84,SSE,158,0.9,1.1,75,0.00,,,0.00,WUHU216HW,2013-05-05 06:19:00,
2013-05-04 23:24:00,51.3,44.0,29.84,SSE,158,0.0,1.1,76,0.00,,,0.00,WUHU216HW,2013-05-05 06:24:00,
2013-05-04 23:29:00,51.1,44.2,29.84,South,180,0.4,0.4,77,0.00,,,0.00,WUHU216HW,2013-05-05 06:29:00,
2013-05-04 23:34:00,50.9,44.0,29.84,South,180,0.0,0.4,77,0.00,,,0.00,WUHU216HW,2013-05-05 06:34:00,
2013-05-04 23:39:00,50.4,43.7,29.84,South,180,0.4,0.4,78,0.00,,,0.00,WUHU216HW,2013-05-05 06:39:00,
2013-05-04 23:44:00,50.0,44.7,29.84,South,180,0.4,0.4,82,0.00,,,0.00,WUHU216HW,2013-05-05 06:44:00,
2013-05-04 23:49:00,49.7,43.7,29.84,SSE,158,0.7,0.7,80,0.00,,,0.00,WUHU216HW,2013-05-05 06:49:00,
2013-05-04 23:54:00,49.7,43.4,29.84,South,180,0.4,1.1,79,0.00,,,0.00,WUHU216HW,2013-05-05 06:54:00,
2013-05-04 23:59:00,49.3,44.0,29.84,South,180,0.0,1.1,82,0.00,,,0.00,WUHU216HW,2013-05-05 06:59:00,